sensor_id;sensor_type;location;lat;lon;timestamp;temperature;humidity
30336;DHT22;17142;47.990;7.846;2023-11-18T00:01:32;5.30;99.90
30336;DHT22;17142;47.990;7.846;2023-11-18T00:04:00;5.30;99.90
30336;DHT22;17142;47.990;7.846;2023-11-18T00:06:26;5.20;99.90
30336;DHT22;17142;47.990;7.846;2023-11-18T00:08:52;5.10;99.90
30336;DHT22;17142;47.990;7.846;2023-11-18T00:11:18;5.00;99.90
30336;DHT22;17142;47.990;7.846;2023-11-18T00:13:44;5.00;99.90
30336;DHT22;17142;47.990;7.846;2023-11-18T00:16:10;4.90;99.90
30336;DHT22;17142;47.990;7.846;2023-11-18T00:18:41;4.90;99.90
30336;DHT22;17142;47.990;7.846;2023-11-18T00:21:07;4.90;99.90
30336;DHT22;17142;47.990;7.846;2023-11-18T00:23:35;4.90;99.90
30336;DHT22;17142;47.990;7.846;2023-11-18T00:26:00;4.90;99.90
30336;DHT22;17142;47.990;7.846;2023-11-18T00:28:27;4.80;99.90
30336;DHT22;17142;47.990;7.846;2023-11-18T00:30:55;4.80;99.90
30336;DHT22;17142;47.990;7.846;2023-11-18T00:33:23;4.80;99.90
30336;DHT22;17142;47.990;7.846;2023-11-18T00:35:49;4.70;99.90
30336;DHT22;17142;47.990;7.846;2023-11-18T00:38:19;4.70;99.90
30336;DHT22;17142;47.990;7.846;2023-11-18T00:40:44;4.60;99.90
30336;DHT22;17142;47.990;7.846;2023-11-18T00:43:10;4.40;99.90
30336;DHT22;17142;47.990;7.846;2023-11-18T00:45:36;4.40;99.90
30336;DHT22;17142;47.990;7.846;2023-11-18T00:48:02;4.40;99.90
30336;DHT22;17142;47.990;7.846;2023-11-18T00:50:29;4.40;99.90
30336;DHT22;17142;47.990;7.846;2023-11-18T00:52:55;4.30;99.90
30336;DHT22;17142;47.990;7.846;2023-11-18T00:55:21;4.20;99.90
30336;DHT22;17142;47.990;7.846;2023-11-18T00:57:46;4.30;99.90
30336;DHT22;17142;47.990;7.846;2023-11-18T01:00:13;4.30;99.90
30336;DHT22;17142;47.990;7.846;2023-11-18T01:02:40;4.30;99.90
30336;DHT22;17142;47.990;7.846;2023-11-18T01:05:06;4.20;99.90
30336;DHT22;17142;47.990;7.846;2023-11-18T01:07:34;4.20;99.90
30336;DHT22;17142;47.990;7.846;2023-11-18T01:10:02;4.20;99.90
30336;DHT22;17142;47.990;7.846;2023-11-18T01:12:31;4.20;99.90
30336;DHT22;17142;47.990;7.846;2023-11-18T01:14:57;4.30;99.90
30336;DHT22;17142;47.990;7.846;2023-11-18T01:17:25;4.30;99.90
30336;DHT22;17142;47.990;7.846;2023-11-18T01:19:50;4.30;99.90
30336;DHT22;17142;47.990;7.846;2023-11-18T01:22:16;4.30;99.90
30336;DHT22;17142;47.990;7.846;2023-11-18T01:24:44;4.40;99.90
30336;DHT22;17142;47.990;7.846;2023-11-18T01:27:12;4.40;99.90
30336;DHT22;17142;47.990;7.846;2023-11-18T01:29:40;4.40;99.90
30336;DHT22;17142;47.990;7.846;2023-11-18T01:32:08;4.40;99.90
30336;DHT22;17142;47.990;7.846;2023-11-18T01:34:37;4.40;99.90
30336;DHT22;17142;47.990;7.846;2023-11-18T01:37:07;4.30;99.90
30336;DHT22;17142;47.990;7.846;2023-11-18T01:39:37;4.30;99.90
30336;DHT22;17142;47.990;7.846;2023-11-18T01:42:05;4.30;99.90
30336;DHT22;17142;47.990;7.846;2023-11-18T01:44:31;4.30;99.90
30336;DHT22;17142;47.990;7.846;2023-11-18T01:46:59;4.20;99.90
30336;DHT22;17142;47.990;7.846;2023-11-18T01:49:28;4.20;99.90
30336;DHT22;17142;47.990;7.846;2023-11-18T01:51:54;4.20;99.90
30336;DHT22;17142;47.990;7.846;2023-11-18T01:54:23;4.20;99.90
30336;DHT22;17142;47.990;7.846;2023-11-18T01:56:49;4.20;99.90
30336;DHT22;17142;47.990;7.846;2023-11-18T01:59:16;4.30;99.90
30336;DHT22;17142;47.990;7.846;2023-11-18T02:01:50;4.30;99.90
30336;DHT22;17142;47.990;7.846;2023-11-18T02:04:17;4.30;99.90
30336;DHT22;17142;47.990;7.846;2023-11-18T02:06:45;4.30;99.90
30336;DHT22;17142;47.990;7.846;2023-11-18T02:09:12;4.20;99.90
30336;DHT22;17142;47.990;7.846;2023-11-18T02:12:08;4.20;99.90
30336;DHT22;17142;47.990;7.846;2023-11-18T02:14:31;4.20;99.90
30336;DHT22;17142;47.990;7.846;2023-11-18T02:17:01;4.20;99.90
30336;DHT22;17142;47.990;7.846;2023-11-18T02:19:29;4.10;99.90
30336;DHT22;17142;47.990;7.846;2023-11-18T02:21:58;4.10;99.90
30336;DHT22;17142;47.990;7.846;2023-11-18T02:24:31;4.10;99.90
30336;DHT22;17142;47.990;7.846;2023-11-18T02:27:02;4.00;99.90
30336;DHT22;17142;47.990;7.846;2023-11-18T02:29:38;4.00;99.90
30336;DHT22;17142;47.990;7.846;2023-11-18T02:34:40;4.00;99.90
30336;DHT22;17142;47.990;7.846;2023-11-18T02:37:11;4.00;99.90
30336;DHT22;17142;47.990;7.846;2023-11-18T02:39:44;4.00;99.90
30336;DHT22;17142;47.990;7.846;2023-11-18T02:42:12;3.90;99.90
30336;DHT22;17142;47.990;7.846;2023-11-18T02:44:39;3.90;99.90
30336;DHT22;17142;47.990;7.846;2023-11-18T02:47:06;3.90;99.90
30336;DHT22;17142;47.990;7.846;2023-11-18T02:49:34;3.80;99.90
30336;DHT22;17142;47.990;7.846;2023-11-18T02:52:00;3.80;99.90
30336;DHT22;17142;47.990;7.846;2023-11-18T02:54:26;3.80;99.90
30336;DHT22;17142;47.990;7.846;2023-11-18T02:56:51;3.70;99.90
30336;DHT22;17142;47.990;7.846;2023-11-18T02:59:17;3.70;99.90
30336;DHT22;17142;47.990;7.846;2023-11-18T03:01:45;3.60;99.90
30336;DHT22;17142;47.990;7.846;2023-11-18T03:04:13;3.60;99.90
30336;DHT22;17142;47.990;7.846;2023-11-18T03:06:40;3.60;99.90
30336;DHT22;17142;47.990;7.846;2023-11-18T03:09:08;3.60;99.90
30336;DHT22;17142;47.990;7.846;2023-11-18T03:11:35;3.70;99.90
30336;DHT22;17142;47.990;7.846;2023-11-18T03:14:03;3.60;99.90
30336;DHT22;17142;47.990;7.846;2023-11-18T03:16:32;3.60;99.90
30336;DHT22;17142;47.990;7.846;2023-11-18T03:18:59;3.60;99.90
30336;DHT22;17142;47.990;7.846;2023-11-18T03:21:24;3.60;99.90
30336;DHT22;17142;47.990;7.846;2023-11-18T03:23:51;3.60;99.90
30336;DHT22;17142;47.990;7.846;2023-11-18T03:26:20;3.50;99.90
30336;DHT22;17142;47.990;7.846;2023-11-18T03:28:46;3.50;99.90
30336;DHT22;17142;47.990;7.846;2023-11-18T03:31:12;3.50;99.90
30336;DHT22;17142;47.990;7.846;2023-11-18T03:33:39;3.40;99.90
30336;DHT22;17142;47.990;7.846;2023-11-18T03:36:05;3.40;99.90
30336;DHT22;17142;47.990;7.846;2023-11-18T03:38:31;3.40;99.90
30336;DHT22;17142;47.990;7.846;2023-11-18T03:40:57;3.40;99.90
30336;DHT22;17142;47.990;7.846;2023-11-18T03:43:23;3.30;99.90
30336;DHT22;17142;47.990;7.846;2023-11-18T03:45:51;3.30;99.90
30336;DHT22;17142;47.990;7.846;2023-11-18T03:48:24;3.30;99.90
30336;DHT22;17142;47.990;7.846;2023-11-18T03:50:50;3.30;99.90
30336;DHT22;17142;47.990;7.846;2023-11-18T03:53:18;3.40;99.90
30336;DHT22;17142;47.990;7.846;2023-11-18T03:55:44;3.40;99.90
30336;DHT22;17142;47.990;7.846;2023-11-18T03:58:14;3.40;99.90
30336;DHT22;17142;47.990;7.846;2023-11-18T04:00:40;3.40;99.90
30336;DHT22;17142;47.990;7.846;2023-11-18T04:03:08;3.40;99.90
30336;DHT22;17142;47.990;7.846;2023-11-18T04:05:35;3.40;99.90
30336;DHT22;17142;47.990;7.846;2023-11-18T04:08:01;3.40;99.90
30336;DHT22;17142;47.990;7.846;2023-11-18T04:10:27;3.40;99.90
30336;DHT22;17142;47.990;7.846;2023-11-18T04:12:52;3.40;99.90
30336;DHT22;17142;47.990;7.846;2023-11-18T04:15:18;3.40;99.90
30336;DHT22;17142;47.990;7.846;2023-11-18T04:17:43;3.40;99.90
30336;DHT22;17142;47.990;7.846;2023-11-18T04:20:10;3.30;99.90
30336;DHT22;17142;47.990;7.846;2023-11-18T04:22:45;3.30;99.90
30336;DHT22;17142;47.990;7.846;2023-11-18T04:25:11;3.30;99.90
30336;DHT22;17142;47.990;7.846;2023-11-18T04:27:40;3.20;99.90
30336;DHT22;17142;47.990;7.846;2023-11-18T04:30:08;3.20;99.90
30336;DHT22;17142;47.990;7.846;2023-11-18T04:32:34;3.20;99.90
30336;DHT22;17142;47.990;7.846;2023-11-18T04:35:00;3.20;99.90
30336;DHT22;17142;47.990;7.846;2023-11-18T04:37:34;3.20;99.90
30336;DHT22;17142;47.990;7.846;2023-11-18T04:40:00;3.20;99.90
30336;DHT22;17142;47.990;7.846;2023-11-18T04:42:29;3.20;99.90
30336;DHT22;17142;47.990;7.846;2023-11-18T04:44:56;3.20;99.90
30336;DHT22;17142;47.990;7.846;2023-11-18T04:47:22;3.20;99.90
30336;DHT22;17142;47.990;7.846;2023-11-18T04:49:50;3.20;99.90
30336;DHT22;17142;47.990;7.846;2023-11-18T04:52:16;3.20;99.90
30336;DHT22;17142;47.990;7.846;2023-11-18T04:54:41;3.20;99.90
30336;DHT22;17142;47.990;7.846;2023-11-18T04:57:07;3.20;99.90
30336;DHT22;17142;47.990;7.846;2023-11-18T04:59:34;3.30;99.90
30336;DHT22;17142;47.990;7.846;2023-11-18T05:02:01;3.30;99.90
30336;DHT22;17142;47.990;7.846;2023-11-18T05:04:29;3.30;99.90
30336;DHT22;17142;47.990;7.846;2023-11-18T05:06:54;3.30;99.90
30336;DHT22;17142;47.990;7.846;2023-11-18T05:09:20;3.30;99.90
30336;DHT22;17142;47.990;7.846;2023-11-18T05:11:48;3.30;99.90
30336;DHT22;17142;47.990;7.846;2023-11-18T05:14:14;3.20;99.90
30336;DHT22;17142;47.990;7.846;2023-11-18T05:16:42;3.20;99.90
30336;DHT22;17142;47.990;7.846;2023-11-18T05:19:07;3.20;99.90
30336;DHT22;17142;47.990;7.846;2023-11-18T05:21:40;3.20;99.90
30336;DHT22;17142;47.990;7.846;2023-11-18T05:24:08;3.20;99.90
30336;DHT22;17142;47.990;7.846;2023-11-18T05:26:34;3.20;99.90
30336;DHT22;17142;47.990;7.846;2023-11-18T05:29:02;3.20;99.90
30336;DHT22;17142;47.990;7.846;2023-11-18T05:31:31;3.20;99.90
30336;DHT22;17142;47.990;7.846;2023-11-18T05:33:58;3.20;99.90
30336;DHT22;17142;47.990;7.846;2023-11-18T05:36:24;3.20;99.90
30336;DHT22;17142;47.990;7.846;2023-11-18T05:38:54;3.20;99.90
30336;DHT22;17142;47.990;7.846;2023-11-18T05:41:20;3.20;99.90
30336;DHT22;17142;47.990;7.846;2023-11-18T05:43:53;3.30;99.90
30336;DHT22;17142;47.990;7.846;2023-11-18T05:46:22;3.30;99.90
30336;DHT22;17142;47.990;7.846;2023-11-18T05:48:53;3.30;99.90
30336;DHT22;17142;47.990;7.846;2023-11-18T05:51:24;3.30;99.90
30336;DHT22;17142;47.990;7.846;2023-11-18T05:53:50;3.40;99.90
30336;DHT22;17142;47.990;7.846;2023-11-18T05:56:17;3.40;99.90
30336;DHT22;17142;47.990;7.846;2023-11-18T05:58:47;3.40;99.90
30336;DHT22;17142;47.990;7.846;2023-11-18T06:01:16;3.40;99.90
30336;DHT22;17142;47.990;7.846;2023-11-18T06:03:43;3.40;99.90
30336;DHT22;17142;47.990;7.846;2023-11-18T06:06:10;3.40;99.90
30336;DHT22;17142;47.990;7.846;2023-11-18T06:08:38;3.40;99.90
30336;DHT22;17142;47.990;7.846;2023-11-18T06:11:10;3.40;99.90
30336;DHT22;17142;47.990;7.846;2023-11-18T06:13:59;3.40;99.90
30336;DHT22;17142;47.990;7.846;2023-11-18T06:16:25;3.50;99.90
30336;DHT22;17142;47.990;7.846;2023-11-18T06:18:56;3.40;99.90
30336;DHT22;17142;47.990;7.846;2023-11-18T06:21:23;3.40;99.90
30336;DHT22;17142;47.990;7.846;2023-11-18T06:24:01;3.40;99.90
30336;DHT22;17142;47.990;7.846;2023-11-18T06:26:29;3.40;99.90
30336;DHT22;17142;47.990;7.846;2023-11-18T06:28:55;3.40;99.90
30336;DHT22;17142;47.990;7.846;2023-11-18T06:31:21;3.40;99.90
30336;DHT22;17142;47.990;7.846;2023-11-18T06:33:49;3.50;99.90
30336;DHT22;17142;47.990;7.846;2023-11-18T06:38:46;3.50;99.90
30336;DHT22;17142;47.990;7.846;2023-11-18T06:41:17;3.50;99.90
30336;DHT22;17142;47.990;7.846;2023-11-18T06:43:46;3.50;99.90
30336;DHT22;17142;47.990;7.846;2023-11-18T06:46:32;3.50;99.90
30336;DHT22;17142;47.990;7.846;2023-11-18T06:49:05;3.60;99.90
30336;DHT22;17142;47.990;7.846;2023-11-18T06:51:35;3.60;99.90
30336;DHT22;17142;47.990;7.846;2023-11-18T06:54:01;3.60;99.90
30336;DHT22;17142;47.990;7.846;2023-11-18T06:56:40;3.70;99.90
30336;DHT22;17142;47.990;7.846;2023-11-18T06:59:12;3.70;99.90
30336;DHT22;17142;47.990;7.846;2023-11-18T07:01:41;3.70;99.90
30336;DHT22;17142;47.990;7.846;2023-11-18T07:04:10;3.80;99.90
30336;DHT22;17142;47.990;7.846;2023-11-18T07:06:36;3.90;99.90
30336;DHT22;17142;47.990;7.846;2023-11-18T07:09:11;3.90;99.90
30336;DHT22;17142;47.990;7.846;2023-11-18T07:11:44;3.90;99.90
30336;DHT22;17142;47.990;7.846;2023-11-18T07:14:10;3.90;99.90
30336;DHT22;17142;47.990;7.846;2023-11-18T07:16:38;3.90;99.90
30336;DHT22;17142;47.990;7.846;2023-11-18T07:19:04;4.00;99.90
30336;DHT22;17142;47.990;7.846;2023-11-18T07:21:30;4.00;99.90
30336;DHT22;17142;47.990;7.846;2023-11-18T07:23:56;4.10;99.90
30336;DHT22;17142;47.990;7.846;2023-11-18T07:26:24;4.10;99.90
30336;DHT22;17142;47.990;7.846;2023-11-18T07:28:50;4.00;99.90
30336;DHT22;17142;47.990;7.846;2023-11-18T07:31:17;4.10;99.90
30336;DHT22;17142;47.990;7.846;2023-11-18T07:33:44;4.10;99.90
30336;DHT22;17142;47.990;7.846;2023-11-18T07:36:17;4.20;99.90
30336;DHT22;17142;47.990;7.846;2023-11-18T07:38:46;4.20;99.90
30336;DHT22;17142;47.990;7.846;2023-11-18T07:41:12;4.20;99.90
30336;DHT22;17142;47.990;7.846;2023-11-18T07:43:52;4.30;99.90
30336;DHT22;17142;47.990;7.846;2023-11-18T07:46:23;4.30;99.90
30336;DHT22;17142;47.990;7.846;2023-11-18T07:48:50;4.40;99.90
30336;DHT22;17142;47.990;7.846;2023-11-18T07:51:19;4.40;99.90
30336;DHT22;17142;47.990;7.846;2023-11-18T07:53:49;4.50;99.90
30336;DHT22;17142;47.990;7.846;2023-11-18T07:56:18;4.50;99.90
30336;DHT22;17142;47.990;7.846;2023-11-18T07:58:44;4.60;99.90
30336;DHT22;17142;47.990;7.846;2023-11-18T08:01:13;4.60;99.90
30336;DHT22;17142;47.990;7.846;2023-11-18T08:03:41;4.60;99.90
30336;DHT22;17142;47.990;7.846;2023-11-18T08:06:08;4.60;99.90
30336;DHT22;17142;47.990;7.846;2023-11-18T08:08:34;4.70;99.90
30336;DHT22;17142;47.990;7.846;2023-11-18T08:11:05;4.80;99.90
30336;DHT22;17142;47.990;7.846;2023-11-18T08:13:31;4.80;99.90
30336;DHT22;17142;47.990;7.846;2023-11-18T08:16:01;4.90;99.90
30336;DHT22;17142;47.990;7.846;2023-11-18T08:18:27;5.10;99.90
30336;DHT22;17142;47.990;7.846;2023-11-18T08:20:57;5.10;99.90
30336;DHT22;17142;47.990;7.846;2023-11-18T08:23:23;5.20;99.90
30336;DHT22;17142;47.990;7.846;2023-11-18T08:25:48;5.30;99.90
30336;DHT22;17142;47.990;7.846;2023-11-18T08:28:16;5.30;99.90
30336;DHT22;17142;47.990;7.846;2023-11-18T08:30:42;5.40;99.90
30336;DHT22;17142;47.990;7.846;2023-11-18T08:33:07;5.40;99.90
30336;DHT22;17142;47.990;7.846;2023-11-18T08:35:37;5.50;99.90
30336;DHT22;17142;47.990;7.846;2023-11-18T08:38:02;5.60;99.90
30336;DHT22;17142;47.990;7.846;2023-11-18T08:40:29;5.70;99.90
30336;DHT22;17142;47.990;7.846;2023-11-18T08:42:55;5.70;99.90
30336;DHT22;17142;47.990;7.846;2023-11-18T08:45:25;5.70;99.90
30336;DHT22;17142;47.990;7.846;2023-11-18T08:47:56;5.70;99.90
30336;DHT22;17142;47.990;7.846;2023-11-18T08:50:25;5.70;99.90
30336;DHT22;17142;47.990;7.846;2023-11-18T08:52:55;5.80;99.90
30336;DHT22;17142;47.990;7.846;2023-11-18T08:55:30;6.00;99.90
30336;DHT22;17142;47.990;7.846;2023-11-18T08:57:59;6.10;99.90
30336;DHT22;17142;47.990;7.846;2023-11-18T09:00:29;6.20;99.90
30336;DHT22;17142;47.990;7.846;2023-11-18T09:03:24;6.30;99.90
30336;DHT22;17142;47.990;7.846;2023-11-18T09:05:57;6.40;99.90
30336;DHT22;17142;47.990;7.846;2023-11-18T09:10:53;6.50;99.90
30336;DHT22;17142;47.990;7.846;2023-11-18T09:13:23;6.60;99.90
30336;DHT22;17142;47.990;7.846;2023-11-18T09:15:59;6.70;99.90
30336;DHT22;17142;47.990;7.846;2023-11-18T09:18:31;6.80;99.90
30336;DHT22;17142;47.990;7.846;2023-11-18T09:20:58;6.80;99.90
30336;DHT22;17142;47.990;7.846;2023-11-18T09:23:26;6.80;99.90
30336;DHT22;17142;47.990;7.846;2023-11-18T09:25:53;6.90;99.90
30336;DHT22;17142;47.990;7.846;2023-11-18T09:28:19;6.90;99.90
30336;DHT22;17142;47.990;7.846;2023-11-18T09:30:46;7.00;99.90
30336;DHT22;17142;47.990;7.846;2023-11-18T09:33:17;7.10;99.90
30336;DHT22;17142;47.990;7.846;2023-11-18T09:36:12;7.10;99.90
30336;DHT22;17142;47.990;7.846;2023-11-18T09:38:41;7.10;99.90
30336;DHT22;17142;47.990;7.846;2023-11-18T09:41:12;7.20;99.90
30336;DHT22;17142;47.990;7.846;2023-11-18T09:43:45;7.30;99.90
30336;DHT22;17142;47.990;7.846;2023-11-18T09:51:43;7.40;99.90
30336;DHT22;17142;47.990;7.846;2023-11-18T09:57:19;7.50;99.90
30336;DHT22;17142;47.990;7.846;2023-11-18T10:00:01;7.60;99.90
30336;DHT22;17142;47.990;7.846;2023-11-18T10:02:39;7.70;99.90
30336;DHT22;17142;47.990;7.846;2023-11-18T10:05:06;7.70;99.90
30336;DHT22;17142;47.990;7.846;2023-11-18T10:07:41;7.70;99.90
30336;DHT22;17142;47.990;7.846;2023-11-18T10:10:08;7.80;99.90
30336;DHT22;17142;47.990;7.846;2023-11-18T10:12:46;7.80;99.90
30336;DHT22;17142;47.990;7.846;2023-11-18T10:15:21;7.90;99.90
30336;DHT22;17142;47.990;7.846;2023-11-18T10:17:51;8.00;99.90
30336;DHT22;17142;47.990;7.846;2023-11-18T10:23:09;8.10;99.90
30336;DHT22;17142;47.990;7.846;2023-11-18T10:25:49;8.00;99.90
30336;DHT22;17142;47.990;7.846;2023-11-18T10:28:28;8.00;99.90
30336;DHT22;17142;47.990;7.846;2023-11-18T10:30:56;8.20;99.90
30336;DHT22;17142;47.990;7.846;2023-11-18T10:33:24;8.20;99.90
30336;DHT22;17142;47.990;7.846;2023-11-18T10:35:56;8.30;99.90
30336;DHT22;17142;47.990;7.846;2023-11-18T10:38:24;8.20;99.90
30336;DHT22;17142;47.990;7.846;2023-11-18T10:40:56;8.20;99.90
30336;DHT22;17142;47.990;7.846;2023-11-18T10:43:22;8.30;99.90
30336;DHT22;17142;47.990;7.846;2023-11-18T10:45:52;8.20;99.90
30336;DHT22;17142;47.990;7.846;2023-11-18T10:48:22;8.20;99.90
30336;DHT22;17142;47.990;7.846;2023-11-18T10:50:50;8.30;99.90
30336;DHT22;17142;47.990;7.846;2023-11-18T10:53:18;8.20;99.90
30336;DHT22;17142;47.990;7.846;2023-11-18T10:55:44;8.30;99.90
30336;DHT22;17142;47.990;7.846;2023-11-18T10:58:12;8.30;99.90
30336;DHT22;17142;47.990;7.846;2023-11-18T11:00:52;8.30;99.90
30336;DHT22;17142;47.990;7.846;2023-11-18T11:03:25;8.30;99.90
30336;DHT22;17142;47.990;7.846;2023-11-18T11:05:52;8.30;99.90
30336;DHT22;17142;47.990;7.846;2023-11-18T11:08:19;8.30;99.90
30336;DHT22;17142;47.990;7.846;2023-11-18T11:10:51;8.30;99.90
30336;DHT22;17142;47.990;7.846;2023-11-18T11:13:18;8.30;99.90
30336;DHT22;17142;47.990;7.846;2023-11-18T11:15:45;8.30;99.90
30336;DHT22;17142;47.990;7.846;2023-11-18T11:18:19;8.40;99.90
30336;DHT22;17142;47.990;7.846;2023-11-18T11:21:06;8.40;99.90
30336;DHT22;17142;47.990;7.846;2023-11-18T11:24:04;8.40;99.90
30336;DHT22;17142;47.990;7.846;2023-11-18T11:31:56;8.50;99.90
30336;DHT22;17142;47.990;7.846;2023-11-18T11:34:26;8.50;99.90
30336;DHT22;17142;47.990;7.846;2023-11-18T11:36:56;8.60;99.90
30336;DHT22;17142;47.990;7.846;2023-11-18T11:39:24;8.60;99.90
30336;DHT22;17142;47.990;7.846;2023-11-18T11:41:55;8.70;99.90
30336;DHT22;17142;47.990;7.846;2023-11-18T11:44:22;8.70;99.90
30336;DHT22;17142;47.990;7.846;2023-11-18T11:46:57;8.70;99.90
30336;DHT22;17142;47.990;7.846;2023-11-18T11:49:34;8.80;99.90
30336;DHT22;17142;47.990;7.846;2023-11-18T11:54:45;9.00;99.90
30336;DHT22;17142;47.990;7.846;2023-11-18T11:57:15;9.00;99.90
30336;DHT22;17142;47.990;7.846;2023-11-18T12:02:13;9.00;99.90
30336;DHT22;17142;47.990;7.846;2023-11-18T12:04:47;9.00;99.90
30336;DHT22;17142;47.990;7.846;2023-11-18T12:07:22;9.00;99.90
30336;DHT22;17142;47.990;7.846;2023-11-18T12:09:59;8.90;99.90
30336;DHT22;17142;47.990;7.846;2023-11-18T12:12:32;8.90;99.90
30336;DHT22;17142;47.990;7.846;2023-11-18T12:14:59;8.80;99.90
30336;DHT22;17142;47.990;7.846;2023-11-18T12:23:13;8.60;99.90
30336;DHT22;17142;47.990;7.846;2023-11-18T12:25:46;8.50;99.90
30336;DHT22;17142;47.990;7.846;2023-11-18T12:28:18;8.60;99.90
30336;DHT22;17142;47.990;7.846;2023-11-18T12:30:51;8.50;99.90
30336;DHT22;17142;47.990;7.846;2023-11-18T12:33:22;8.50;99.90
30336;DHT22;17142;47.990;7.846;2023-11-18T12:42:07;8.50;99.90
30336;DHT22;17142;47.990;7.846;2023-11-18T12:47:24;8.70;99.90
30336;DHT22;17142;47.990;7.846;2023-11-18T12:49:56;8.80;99.90
30336;DHT22;17142;47.990;7.846;2023-11-18T12:52:22;8.90;99.90
30336;DHT22;17142;47.990;7.846;2023-11-18T12:54:49;9.00;99.90
30336;DHT22;17142;47.990;7.846;2023-11-18T12:57:20;9.10;99.90
30336;DHT22;17142;47.990;7.846;2023-11-18T12:59:48;9.20;99.90
30336;DHT22;17142;47.990;7.846;2023-11-18T13:02:15;9.20;99.90
30336;DHT22;17142;47.990;7.846;2023-11-18T13:04:45;9.30;99.90
30336;DHT22;17142;47.990;7.846;2023-11-18T13:07:13;9.40;99.90
30336;DHT22;17142;47.990;7.846;2023-11-18T13:09:40;9.40;99.90
30336;DHT22;17142;47.990;7.846;2023-11-18T13:12:08;9.40;99.90
30336;DHT22;17142;47.990;7.846;2023-11-18T13:14:35;9.40;99.90
30336;DHT22;17142;47.990;7.846;2023-11-18T13:17:10;9.40;99.90
30336;DHT22;17142;47.990;7.846;2023-11-18T13:19:37;9.20;99.90
30336;DHT22;17142;47.990;7.846;2023-11-18T13:22:08;9.20;99.90
30336;DHT22;17142;47.990;7.846;2023-11-18T13:24:38;9.20;99.90
30336;DHT22;17142;47.990;7.846;2023-11-18T13:27:15;9.20;99.90
30336;DHT22;17142;47.990;7.846;2023-11-18T13:29:46;9.30;99.90
30336;DHT22;17142;47.990;7.846;2023-11-18T13:32:17;9.30;99.90
30336;DHT22;17142;47.990;7.846;2023-11-18T13:34:43;9.40;99.90
30336;DHT22;17142;47.990;7.846;2023-11-18T13:37:09;9.40;99.90
30336;DHT22;17142;47.990;7.846;2023-11-18T13:39:40;9.40;99.90
30336;DHT22;17142;47.990;7.846;2023-11-18T13:42:25;9.50;99.90
30336;DHT22;17142;47.990;7.846;2023-11-18T13:44:53;9.60;99.90
30336;DHT22;17142;47.990;7.846;2023-11-18T13:47:22;9.60;99.90
30336;DHT22;17142;47.990;7.846;2023-11-18T13:49:50;9.60;99.90
30336;DHT22;17142;47.990;7.846;2023-11-18T13:52:18;9.60;99.90
30336;DHT22;17142;47.990;7.846;2023-11-18T13:54:44;9.50;99.90
30336;DHT22;17142;47.990;7.846;2023-11-18T13:57:12;9.50;99.90
30336;DHT22;17142;47.990;7.846;2023-11-18T13:59:38;9.50;99.90
30336;DHT22;17142;47.990;7.846;2023-11-18T14:02:09;9.50;99.90
30336;DHT22;17142;47.990;7.846;2023-11-18T14:04:39;9.60;99.90
30336;DHT22;17142;47.990;7.846;2023-11-18T14:07:07;9.60;99.90
30336;DHT22;17142;47.990;7.846;2023-11-18T14:09:35;9.60;99.90
30336;DHT22;17142;47.990;7.846;2023-11-18T14:12:02;9.60;99.90
30336;DHT22;17142;47.990;7.846;2023-11-18T14:14:30;9.70;99.90
30336;DHT22;17142;47.990;7.846;2023-11-18T14:16:56;9.70;99.90
30336;DHT22;17142;47.990;7.846;2023-11-18T14:19:23;9.80;99.90
30336;DHT22;17142;47.990;7.846;2023-11-18T14:21:51;9.80;99.90
30336;DHT22;17142;47.990;7.846;2023-11-18T14:24:19;9.90;99.90
30336;DHT22;17142;47.990;7.846;2023-11-18T14:26:45;10.00;99.90
30336;DHT22;17142;47.990;7.846;2023-11-18T14:29:13;10.00;99.90
30336;DHT22;17142;47.990;7.846;2023-11-18T14:31:41;10.10;99.90
30336;DHT22;17142;47.990;7.846;2023-11-18T14:34:06;10.10;99.90
30336;DHT22;17142;47.990;7.846;2023-11-18T14:36:36;10.00;99.90
30336;DHT22;17142;47.990;7.846;2023-11-18T14:39:05;10.00;99.90
30336;DHT22;17142;47.990;7.846;2023-11-18T14:41:37;10.00;99.90
30336;DHT22;17142;47.990;7.846;2023-11-18T14:44:03;10.00;99.90
30336;DHT22;17142;47.990;7.846;2023-11-18T14:46:32;10.00;99.90
30336;DHT22;17142;47.990;7.846;2023-11-18T14:48:58;10.00;99.90
30336;DHT22;17142;47.990;7.846;2023-11-18T14:51:24;10.00;99.90
30336;DHT22;17142;47.990;7.846;2023-11-18T14:53:51;10.00;99.90
30336;DHT22;17142;47.990;7.846;2023-11-18T14:56:19;10.00;99.90
30336;DHT22;17142;47.990;7.846;2023-11-18T14:58:45;10.00;99.90
30336;DHT22;17142;47.990;7.846;2023-11-18T15:01:14;9.90;99.90
30336;DHT22;17142;47.990;7.846;2023-11-18T15:03:40;9.90;99.90
30336;DHT22;17142;47.990;7.846;2023-11-18T15:06:06;9.80;99.90
30336;DHT22;17142;47.990;7.846;2023-11-18T15:08:32;9.80;99.90
30336;DHT22;17142;47.990;7.846;2023-11-18T15:10:58;9.70;99.90
30336;DHT22;17142;47.990;7.846;2023-11-18T15:13:27;9.70;99.90
30336;DHT22;17142;47.990;7.846;2023-11-18T15:15:52;9.70;99.90
30336;DHT22;17142;47.990;7.846;2023-11-18T15:18:18;9.60;99.90
30336;DHT22;17142;47.990;7.846;2023-11-18T15:20:45;9.50;99.90
30336;DHT22;17142;47.990;7.846;2023-11-18T15:23:11;9.50;99.90
30336;DHT22;17142;47.990;7.846;2023-11-18T15:25:38;9.40;99.90
30336;DHT22;17142;47.990;7.846;2023-11-18T15:28:05;9.40;99.90
30336;DHT22;17142;47.990;7.846;2023-11-18T15:30:36;9.40;99.90
30336;DHT22;17142;47.990;7.846;2023-11-18T15:33:01;9.30;99.90
30336;DHT22;17142;47.990;7.846;2023-11-18T15:35:29;9.30;99.90
30336;DHT22;17142;47.990;7.846;2023-11-18T15:37:55;9.20;99.90
30336;DHT22;17142;47.990;7.846;2023-11-18T15:40:21;9.20;99.90
30336;DHT22;17142;47.990;7.846;2023-11-18T15:42:50;9.20;99.90
30336;DHT22;17142;47.990;7.846;2023-11-18T15:45:20;9.10;99.90
30336;DHT22;17142;47.990;7.846;2023-11-18T15:47:46;9.10;99.90
30336;DHT22;17142;47.990;7.846;2023-11-18T15:50:14;9.00;99.90
30336;DHT22;17142;47.990;7.846;2023-11-18T15:52:45;8.90;99.90
30336;DHT22;17142;47.990;7.846;2023-11-18T15:55:13;8.80;99.90
30336;DHT22;17142;47.990;7.846;2023-11-18T15:57:43;8.80;99.90
30336;DHT22;17142;47.990;7.846;2023-11-18T16:00:10;8.70;99.90
30336;DHT22;17142;47.990;7.846;2023-11-18T16:02:45;8.70;99.90
30336;DHT22;17142;47.990;7.846;2023-11-18T16:05:15;8.70;99.90
30336;DHT22;17142;47.990;7.846;2023-11-18T16:07:43;8.70;99.90
30336;DHT22;17142;47.990;7.846;2023-11-18T16:10:10;8.60;99.90
30336;DHT22;17142;47.990;7.846;2023-11-18T16:12:38;8.60;99.90
30336;DHT22;17142;47.990;7.846;2023-11-18T16:15:04;8.60;99.90
30336;DHT22;17142;47.990;7.846;2023-11-18T16:17:33;8.50;99.90
30336;DHT22;17142;47.990;7.846;2023-11-18T16:19:59;8.50;99.90
30336;DHT22;17142;47.990;7.846;2023-11-18T16:22:24;8.50;99.90
30336;DHT22;17142;47.990;7.846;2023-11-18T16:24:50;8.50;99.90
30336;DHT22;17142;47.990;7.846;2023-11-18T16:27:16;8.50;99.90
30336;DHT22;17142;47.990;7.846;2023-11-18T16:29:42;8.50;99.90
30336;DHT22;17142;47.990;7.846;2023-11-18T16:32:10;8.50;99.90
30336;DHT22;17142;47.990;7.846;2023-11-18T16:34:38;8.50;99.90
30336;DHT22;17142;47.990;7.846;2023-11-18T16:37:04;8.50;99.90
30336;DHT22;17142;47.990;7.846;2023-11-18T16:39:29;8.50;99.90